This is the latest recevied weather packets stored in our database for station/object SV6DBG-10. If no packets are shown the sender has not sent any weather packets the latest 1 day(s).
| Time | Temp. | Humidity | Pressure | Rain* | Wind** | Luminosity | Snow |
|---|---|---|---|---|---|---|---|
| 1777921175 | 14.44° C | 64% | 1022.1 hPa | - | - | - | - |
| 1777920275 | 15° C | 59% | 1021.8 hPa | - | - | - | - |
| 1777919375 | 15° C | 59% | 1021.6 hPa | - | - | - | - |
| 1777918475 | 15.56° C | 57% | 1021.4 hPa | - | - | - | - |
| 1777917574 | 16.11° C | 55% | 1021.2 hPa | - | - | - | - |
| 1777916674 | 16.67° C | 54% | 1021 hPa | - | - | - | - |
| 1777915774 | 16.67° C | 53% | 1020.9 hPa | - | - | - | - |
| 1777914874 | 18.33° C | 45% | 1020.7 hPa | - | - | - | - |
| 1777913974 | 20° C | 41% | 1020.6 hPa | - | - | - | - |
| 1777913073 | 20.56° C | 39% | 1020.4 hPa | - | - | - | - |
| 1777912172 | 21.11° C | 37% | 1020.3 hPa | - | - | - | - |
| 1777911272 | 22.22° C | 36% | 1020.1 hPa | - | - | - | - |
| 1777910371 | 22.22° C | 34% | 1020 hPa | - | - | - | - |
| 1777909470 | 23.89° C | 30% | 1019.9 hPa | - | - | - | - |
| 1777908570 | 25° C | 27% | 1019.8 hPa | - | - | - | - |
| 1777907670 | 25° C | 25% | 1019.7 hPa | - | - | - | - |
| 1777906770 | 24.44° C | 25% | 1019.6 hPa | - | - | - | - |
| 1777905870 | 24.44° C | 24% | 1019.5 hPa | - | - | - | - |
| 1777904970 | 23.33° C | 24% | 1019.6 hPa | - | - | - | - |
| 1777904069 | 22.78° C | 22% | 1019.6 hPa | - | - | - | - |
| 1777903169 | 24.44° C | 17% | 1019.5 hPa | - | - | - | - |
| 1777902269 | 22.22° C | 18% | 1019.7 hPa | - | - | - | - |
| 1777901369 | 23.89° C | 16% | 1019.8 hPa | - | - | - | - |
| 1777900469 | 24.44° C | 17% | 1019.8 hPa | - | - | - | - |
| 1777899569 | 23.89° C | 17% | 1019.9 hPa | - | - | - | - |
* Rain since midnight (hover to see other rain measurements)
** Current wind speed in m/s (hover to see current wind gust speed)